sensor_id;sensor_type;location;lat;lon;timestamp;P1;durP1;ratioP1;P2;durP2;ratioP2
65759;SDS011;52496;51.082;5.066;2023-04-03T00:00:52;8.65;;;5.30;;
65759;SDS011;52496;51.082;5.066;2023-04-03T00:03:23;9.15;;;5.45;;
65759;SDS011;52496;51.082;5.066;2023-04-03T00:05:53;9.35;;;5.40;;
65759;SDS011;52496;51.082;5.066;2023-04-03T00:08:24;7.93;;;5.30;;
65759;SDS011;52496;51.082;5.066;2023-04-03T00:10:55;7.85;;;5.15;;
65759;SDS011;52496;51.082;5.066;2023-04-03T00:13:25;8.07;;;5.15;;
65759;SDS011;52496;51.082;5.066;2023-04-03T00:15:56;8.20;;;4.93;;
65759;SDS011;52496;51.082;5.066;2023-04-03T00:18:26;9.10;;;5.72;;
65759;SDS011;52496;51.082;5.066;2023-04-03T00:20:57;13.10;;;5.43;;
65759;SDS011;52496;51.082;5.066;2023-04-03T00:23:28;7.45;;;5.15;;
65759;SDS011;52496;51.082;5.066;2023-04-03T00:25:58;8.23;;;5.00;;
65759;SDS011;52496;51.082;5.066;2023-04-03T00:28:29;11.90;;;5.50;;
65759;SDS011;52496;51.082;5.066;2023-04-03T00:30:59;9.65;;;5.75;;
65759;SDS011;52496;51.082;5.066;2023-04-03T00:33:30;11.82;;;4.97;;
65759;SDS011;52496;51.082;5.066;2023-04-03T00:36:05;7.88;;;5.03;;
65759;SDS011;52496;51.082;5.066;2023-04-03T00:38:39;8.75;;;5.07;;
65759;SDS011;52496;51.082;5.066;2023-04-03T00:41:10;10.07;;;6.35;;
65759;SDS011;52496;51.082;5.066;2023-04-03T00:43:40;9.05;;;5.75;;
65759;SDS011;52496;51.082;5.066;2023-04-03T00:46:12;11.90;;;6.53;;
65759;SDS011;52496;51.082;5.066;2023-04-03T00:48:43;12.10;;;6.38;;
65759;SDS011;52496;51.082;5.066;2023-04-03T00:51:34;10.05;;;6.07;;
65759;SDS011;52496;51.082;5.066;2023-04-03T00:54:05;9.55;;;6.22;;
65759;SDS011;52496;51.082;5.066;2023-04-03T00:56:38;9.05;;;6.20;;
65759;SDS011;52496;51.082;5.066;2023-04-03T00:59:13;9.77;;;6.45;;
65759;SDS011;52496;51.082;5.066;2023-04-03T01:01:46;10.63;;;5.97;;
65759;SDS011;52496;51.082;5.066;2023-04-03T01:04:26;9.45;;;6.38;;
65759;SDS011;52496;51.082;5.066;2023-04-03T01:07:41;10.93;;;6.55;;
65759;SDS011;52496;51.082;5.066;2023-04-03T01:09:58;10.57;;;6.32;;
65759;SDS011;52496;51.082;5.066;2023-04-03T01:12:38;13.70;;;6.55;;
65759;SDS011;52496;51.082;5.066;2023-04-03T01:15:10;10.95;;;5.90;;
65759;SDS011;52496;51.082;5.066;2023-04-03T01:23:21;10.27;;;5.70;;
65759;SDS011;52496;51.082;5.066;2023-04-03T01:26:01;11.52;;;6.88;;
65759;SDS011;52496;51.082;5.066;2023-04-03T01:28:33;10.88;;;6.20;;
65759;SDS011;52496;51.082;5.066;2023-04-03T01:31:09;13.73;;;7.00;;
65759;SDS011;52496;51.082;5.066;2023-04-03T01:33:57;11.20;;;6.53;;
65759;SDS011;52496;51.082;5.066;2023-04-03T01:36:28;11.05;;;6.95;;
65759;SDS011;52496;51.082;5.066;2023-04-03T01:39:00;9.88;;;7.10;;
65759;SDS011;52496;51.082;5.066;2023-04-03T01:41:31;12.65;;;6.85;;
65759;SDS011;52496;51.082;5.066;2023-04-03T01:44:02;10.45;;;6.22;;
65759;SDS011;52496;51.082;5.066;2023-04-03T01:46:33;9.65;;;6.18;;
65759;SDS011;52496;51.082;5.066;2023-04-03T01:49:07;11.15;;;6.80;;
65759;SDS011;52496;51.082;5.066;2023-04-03T01:51:38;10.73;;;6.65;;
65759;SDS011;52496;51.082;5.066;2023-04-03T01:54:08;11.95;;;6.57;;
65759;SDS011;52496;51.082;5.066;2023-04-03T01:56:39;11.73;;;7.00;;
65759;SDS011;52496;51.082;5.066;2023-04-03T01:59:09;13.05;;;7.15;;
65759;SDS011;52496;51.082;5.066;2023-04-03T02:01:40;10.93;;;6.35;;
65759;SDS011;52496;51.082;5.066;2023-04-03T02:04:11;9.48;;;5.70;;
65759;SDS011;52496;51.082;5.066;2023-04-03T02:06:42;13.52;;;7.13;;
65759;SDS011;52496;51.082;5.066;2023-04-03T02:09:12;11.57;;;6.32;;
65759;SDS011;52496;51.082;5.066;2023-04-03T02:11:43;11.50;;;7.22;;
65759;SDS011;52496;51.082;5.066;2023-04-03T02:14:13;12.20;;;7.03;;
65759;SDS011;52496;51.082;5.066;2023-04-03T02:16:44;14.18;;;6.63;;
65759;SDS011;52496;51.082;5.066;2023-04-03T02:19:15;11.52;;;6.70;;
65759;SDS011;52496;51.082;5.066;2023-04-03T02:21:45;10.90;;;7.72;;
65759;SDS011;52496;51.082;5.066;2023-04-03T02:24:16;11.55;;;7.03;;
65759;SDS011;52496;51.082;5.066;2023-04-03T02:26:46;11.82;;;7.18;;
65759;SDS011;52496;51.082;5.066;2023-04-03T02:29:17;10.18;;;6.13;;
65759;SDS011;52496;51.082;5.066;2023-04-03T02:31:47;9.57;;;6.07;;
65759;SDS011;52496;51.082;5.066;2023-04-03T02:34:17;15.05;;;7.07;;
65759;SDS011;52496;51.082;5.066;2023-04-03T02:36:48;10.45;;;6.75;;
65759;SDS011;52496;51.082;5.066;2023-04-03T02:39:18;11.15;;;7.30;;
65759;SDS011;52496;51.082;5.066;2023-04-03T02:41:49;12.48;;;7.93;;
65759;SDS011;52496;51.082;5.066;2023-04-03T02:44:19;15.50;;;7.82;;
65759;SDS011;52496;51.082;5.066;2023-04-03T02:46:50;11.00;;;7.25;;
65759;SDS011;52496;51.082;5.066;2023-04-03T02:49:20;11.68;;;7.53;;
65759;SDS011;52496;51.082;5.066;2023-04-03T02:51:51;14.05;;;6.90;;
65759;SDS011;52496;51.082;5.066;2023-04-03T02:54:22;11.32;;;7.30;;
65759;SDS011;52496;51.082;5.066;2023-04-03T02:56:53;13.30;;;8.18;;
65759;SDS011;52496;51.082;5.066;2023-04-03T02:59:24;15.23;;;8.35;;
65759;SDS011;52496;51.082;5.066;2023-04-03T03:01:55;16.80;;;7.55;;
65759;SDS011;52496;51.082;5.066;2023-04-03T03:04:26;13.18;;;8.15;;
65759;SDS011;52496;51.082;5.066;2023-04-03T03:06:56;16.52;;;8.43;;
65759;SDS011;52496;51.082;5.066;2023-04-03T03:09:27;13.18;;;9.25;;
65759;SDS011;52496;51.082;5.066;2023-04-03T03:11:57;14.82;;;7.88;;
65759;SDS011;52496;51.082;5.066;2023-04-03T03:14:31;13.40;;;7.90;;
65759;SDS011;52496;51.082;5.066;2023-04-03T03:17:02;14.30;;;7.15;;
65759;SDS011;52496;51.082;5.066;2023-04-03T03:19:32;14.90;;;9.05;;
65759;SDS011;52496;51.082;5.066;2023-04-03T03:22:02;12.05;;;8.32;;
65759;SDS011;52496;51.082;5.066;2023-04-03T03:24:33;17.73;;;7.75;;
65759;SDS011;52496;51.082;5.066;2023-04-03T03:27:03;12.32;;;7.53;;
65759;SDS011;52496;51.082;5.066;2023-04-03T03:29:34;13.63;;;8.60;;
65759;SDS011;52496;51.082;5.066;2023-04-03T03:32:04;16.38;;;9.00;;
65759;SDS011;52496;51.082;5.066;2023-04-03T03:34:35;14.10;;;8.35;;
65759;SDS011;52496;51.082;5.066;2023-04-03T03:37:06;15.10;;;8.57;;
65759;SDS011;52496;51.082;5.066;2023-04-03T03:39:36;17.10;;;10.15;;
65759;SDS011;52496;51.082;5.066;2023-04-03T03:42:07;16.27;;;10.88;;
65759;SDS011;52496;51.082;5.066;2023-04-03T03:44:37;18.50;;;9.27;;
65759;SDS011;52496;51.082;5.066;2023-04-03T03:47:08;14.40;;;8.88;;
65759;SDS011;52496;51.082;5.066;2023-04-03T03:49:40;11.32;;;7.50;;
65759;SDS011;52496;51.082;5.066;2023-04-03T03:52:11;13.85;;;8.07;;
65759;SDS011;52496;51.082;5.066;2023-04-03T03:54:41;13.48;;;8.57;;
65759;SDS011;52496;51.082;5.066;2023-04-03T03:57:12;16.33;;;9.55;;
65759;SDS011;52496;51.082;5.066;2023-04-03T03:59:45;15.80;;;8.98;;
65759;SDS011;52496;51.082;5.066;2023-04-03T04:02:17;18.65;;;10.32;;
65759;SDS011;52496;51.082;5.066;2023-04-03T04:04:48;17.45;;;9.93;;
65759;SDS011;52496;51.082;5.066;2023-04-03T04:07:19;17.80;;;10.90;;
65759;SDS011;52496;51.082;5.066;2023-04-03T04:09:50;20.73;;;10.70;;
65759;SDS011;52496;51.082;5.066;2023-04-03T04:12:21;22.83;;;12.63;;
65759;SDS011;52496;51.082;5.066;2023-04-03T04:14:51;20.20;;;11.02;;
65759;SDS011;52496;51.082;5.066;2023-04-03T04:17:22;16.65;;;10.52;;
65759;SDS011;52496;51.082;5.066;2023-04-03T04:19:52;18.33;;;10.93;;
65759;SDS011;52496;51.082;5.066;2023-04-03T04:22:23;18.48;;;11.10;;
65759;SDS011;52496;51.082;5.066;2023-04-03T04:24:53;21.75;;;11.43;;
65759;SDS011;52496;51.082;5.066;2023-04-03T04:27:24;18.15;;;11.55;;
65759;SDS011;52496;51.082;5.066;2023-04-03T04:29:54;21.10;;;13.18;;
65759;SDS011;52496;51.082;5.066;2023-04-03T04:32:25;16.50;;;10.60;;
65759;SDS011;52496;51.082;5.066;2023-04-03T04:34:56;19.38;;;12.40;;
65759;SDS011;52496;51.082;5.066;2023-04-03T04:37:26;25.90;;;11.95;;
65759;SDS011;52496;51.082;5.066;2023-04-03T04:39:57;22.95;;;11.70;;
65759;SDS011;52496;51.082;5.066;2023-04-03T04:42:28;21.67;;;12.02;;
65759;SDS011;52496;51.082;5.066;2023-04-03T04:44:58;23.05;;;13.07;;
65759;SDS011;52496;51.082;5.066;2023-04-03T04:47:29;21.67;;;13.30;;
65759;SDS011;52496;51.082;5.066;2023-04-03T04:49:59;21.35;;;12.82;;
65759;SDS011;52496;51.082;5.066;2023-04-03T04:52:30;17.80;;;11.98;;
65759;SDS011;52496;51.082;5.066;2023-04-03T04:55:00;21.38;;;12.40;;
65759;SDS011;52496;51.082;5.066;2023-04-03T04:57:31;23.08;;;12.43;;
65759;SDS011;52496;51.082;5.066;2023-04-03T05:00:01;21.48;;;12.75;;
65759;SDS011;52496;51.082;5.066;2023-04-03T05:02:32;24.15;;;12.63;;
65759;SDS011;52496;51.082;5.066;2023-04-03T05:05:03;21.90;;;13.43;;
65759;SDS011;52496;51.082;5.066;2023-04-03T05:07:34;24.70;;;13.15;;
65759;SDS011;52496;51.082;5.066;2023-04-03T05:10:05;21.80;;;12.70;;
65759;SDS011;52496;51.082;5.066;2023-04-03T05:12:37;24.73;;;13.25;;
65759;SDS011;52496;51.082;5.066;2023-04-03T05:15:07;18.27;;;12.13;;
65759;SDS011;52496;51.082;5.066;2023-04-03T05:17:38;23.65;;;12.90;;
65759;SDS011;52496;51.082;5.066;2023-04-03T05:20:09;22.58;;;13.10;;
65759;SDS011;52496;51.082;5.066;2023-04-03T05:22:40;23.92;;;12.27;;
65759;SDS011;52496;51.082;5.066;2023-04-03T05:25:10;19.20;;;12.68;;
65759;SDS011;52496;51.082;5.066;2023-04-03T05:27:41;23.88;;;13.15;;
65759;SDS011;52496;51.082;5.066;2023-04-03T05:30:11;19.33;;;12.13;;
65759;SDS011;52496;51.082;5.066;2023-04-03T05:32:43;19.75;;;11.45;;
65759;SDS011;52496;51.082;5.066;2023-04-03T05:35:14;22.35;;;12.38;;
65759;SDS011;52496;51.082;5.066;2023-04-03T05:37:44;21.10;;;12.20;;
65759;SDS011;52496;51.082;5.066;2023-04-03T05:40:15;19.48;;;11.88;;
65759;SDS011;52496;51.082;5.066;2023-04-03T05:42:46;18.05;;;11.23;;
65759;SDS011;52496;51.082;5.066;2023-04-03T05:45:16;17.63;;;11.43;;
65759;SDS011;52496;51.082;5.066;2023-04-03T05:47:47;16.02;;;10.60;;
65759;SDS011;52496;51.082;5.066;2023-04-03T05:50:17;13.68;;;9.88;;
65759;SDS011;52496;51.082;5.066;2023-04-03T05:52:48;17.42;;;10.90;;
65759;SDS011;52496;51.082;5.066;2023-04-03T05:55:21;17.98;;;11.00;;
65759;SDS011;52496;51.082;5.066;2023-04-03T05:57:51;15.98;;;8.85;;
65759;SDS011;52496;51.082;5.066;2023-04-03T06:00:22;21.25;;;10.43;;
65759;SDS011;52496;51.082;5.066;2023-04-03T06:02:52;16.75;;;9.57;;
65759;SDS011;52496;51.082;5.066;2023-04-03T06:05:23;17.55;;;10.30;;
65759;SDS011;52496;51.082;5.066;2023-04-03T06:07:53;12.48;;;9.18;;
65759;SDS011;52496;51.082;5.066;2023-04-03T06:10:24;15.02;;;9.68;;
65759;SDS011;52496;51.082;5.066;2023-04-03T06:12:55;13.52;;;9.73;;
65759;SDS011;52496;51.082;5.066;2023-04-03T06:15:25;16.10;;;8.98;;
65759;SDS011;52496;51.082;5.066;2023-04-03T06:17:55;12.98;;;8.18;;
65759;SDS011;52496;51.082;5.066;2023-04-03T06:20:26;18.45;;;8.45;;
65759;SDS011;52496;51.082;5.066;2023-04-03T06:22:56;16.98;;;8.93;;
65759;SDS011;52496;51.082;5.066;2023-04-03T06:25:28;12.88;;;8.30;;
65759;SDS011;52496;51.082;5.066;2023-04-03T06:27:59;11.73;;;7.65;;
65759;SDS011;52496;51.082;5.066;2023-04-03T06:30:30;14.68;;;7.78;;
65759;SDS011;52496;51.082;5.066;2023-04-03T06:33:00;15.88;;;7.53;;
65759;SDS011;52496;51.082;5.066;2023-04-03T06:35:31;14.05;;;7.43;;
65759;SDS011;52496;51.082;5.066;2023-04-03T06:38:01;12.18;;;7.50;;
65759;SDS011;52496;51.082;5.066;2023-04-03T06:40:34;11.95;;;8.27;;
65759;SDS011;52496;51.082;5.066;2023-04-03T06:43:05;14.82;;;7.00;;
65759;SDS011;52496;51.082;5.066;2023-04-03T06:45:36;11.85;;;7.50;;
65759;SDS011;52496;51.082;5.066;2023-04-03T06:48:06;12.48;;;7.10;;
65759;SDS011;52496;51.082;5.066;2023-04-03T06:50:37;13.05;;;7.18;;
65759;SDS011;52496;51.082;5.066;2023-04-03T06:53:07;10.57;;;6.72;;
65759;SDS011;52496;51.082;5.066;2023-04-03T06:55:38;11.05;;;6.22;;
65759;SDS011;52496;51.082;5.066;2023-04-03T06:58:08;11.52;;;6.75;;
65759;SDS011;52496;51.082;5.066;2023-04-03T07:00:39;9.80;;;5.80;;
65759;SDS011;52496;51.082;5.066;2023-04-03T07:03:10;8.82;;;5.53;;
65759;SDS011;52496;51.082;5.066;2023-04-03T07:05:40;11.32;;;6.55;;
65759;SDS011;52496;51.082;5.066;2023-04-03T07:08:14;10.60;;;6.22;;
65759;SDS011;52496;51.082;5.066;2023-04-03T07:10:45;12.32;;;5.53;;
65759;SDS011;52496;51.082;5.066;2023-04-03T07:13:15;12.77;;;5.50;;
65759;SDS011;52496;51.082;5.066;2023-04-03T07:15:46;11.20;;;5.90;;
65759;SDS011;52496;51.082;5.066;2023-04-03T07:18:16;10.07;;;5.40;;
65759;SDS011;52496;51.082;5.066;2023-04-03T07:20:47;9.02;;;5.05;;
65759;SDS011;52496;51.082;5.066;2023-04-03T07:23:18;8.40;;;5.35;;
65759;SDS011;52496;51.082;5.066;2023-04-03T07:25:49;11.75;;;5.22;;
65759;SDS011;52496;51.082;5.066;2023-04-03T07:28:21;11.07;;;5.10;;
65759;SDS011;52496;51.082;5.066;2023-04-03T07:30:54;11.02;;;5.15;;
65759;SDS011;52496;51.082;5.066;2023-04-03T07:33:29;10.70;;;4.78;;
65759;SDS011;52496;51.082;5.066;2023-04-03T07:36:01;9.25;;;4.88;;
65759;SDS011;52496;51.082;5.066;2023-04-03T07:38:31;9.05;;;4.82;;
65759;SDS011;52496;51.082;5.066;2023-04-03T07:41:03;11.50;;;5.10;;
65759;SDS011;52496;51.082;5.066;2023-04-03T07:43:34;12.02;;;4.45;;
65759;SDS011;52496;51.082;5.066;2023-04-03T07:46:04;8.98;;;4.53;;
65759;SDS011;52496;51.082;5.066;2023-04-03T07:48:35;9.27;;;4.65;;
65759;SDS011;52496;51.082;5.066;2023-04-03T07:51:05;7.93;;;4.55;;
65759;SDS011;52496;51.082;5.066;2023-04-03T07:53:36;12.45;;;4.28;;
65759;SDS011;52496;51.082;5.066;2023-04-03T07:56:07;7.78;;;3.92;;
65759;SDS011;52496;51.082;5.066;2023-04-03T07:58:39;7.78;;;4.22;;
65759;SDS011;52496;51.082;5.066;2023-04-03T08:01:09;8.13;;;3.80;;
65759;SDS011;52496;51.082;5.066;2023-04-03T08:03:40;12.32;;;4.70;;
65759;SDS011;52496;51.082;5.066;2023-04-03T08:06:11;8.98;;;4.10;;
65759;SDS011;52496;51.082;5.066;2023-04-03T08:08:44;7.53;;;3.80;;
65759;SDS011;52496;51.082;5.066;2023-04-03T08:11:15;12.38;;;4.07;;
65759;SDS011;52496;51.082;5.066;2023-04-03T08:13:46;10.32;;;4.43;;
65759;SDS011;52496;51.082;5.066;2023-04-03T08:16:17;7.28;;;3.20;;
65759;SDS011;52496;51.082;5.066;2023-04-03T08:18:50;7.65;;;3.40;;
65759;SDS011;52496;51.082;5.066;2023-04-03T08:21:21;7.07;;;3.50;;
65759;SDS011;52496;51.082;5.066;2023-04-03T08:23:51;8.35;;;3.58;;
65759;SDS011;52496;51.082;5.066;2023-04-03T08:26:22;10.07;;;4.32;;
65759;SDS011;52496;51.082;5.066;2023-04-03T08:28:52;8.40;;;3.75;;
65759;SDS011;52496;51.082;5.066;2023-04-03T08:31:23;11.07;;;4.40;;
65759;SDS011;52496;51.082;5.066;2023-04-03T08:33:56;7.28;;;3.70;;
65759;SDS011;52496;51.082;5.066;2023-04-03T08:36:28;8.00;;;3.47;;
65759;SDS011;52496;51.082;5.066;2023-04-03T08:38:59;10.77;;;3.63;;
65759;SDS011;52496;51.082;5.066;2023-04-03T08:41:33;9.27;;;3.15;;
65759;SDS011;52496;51.082;5.066;2023-04-03T08:52:43;10.32;;;3.15;;
65759;SDS011;52496;51.082;5.066;2023-04-03T08:55:34;6.90;;;3.25;;
65759;SDS011;52496;51.082;5.066;2023-04-03T09:03:36;6.10;;;3.08;;
65759;SDS011;52496;51.082;5.066;2023-04-03T09:06:17;6.82;;;2.80;;
65759;SDS011;52496;51.082;5.066;2023-04-03T09:09:11;9.38;;;2.90;;
65759;SDS011;52496;51.082;5.066;2023-04-03T09:14:33;5.18;;;2.42;;
65759;SDS011;52496;51.082;5.066;2023-04-03T09:17:21;5.35;;;2.58;;
65759;SDS011;52496;51.082;5.066;2023-04-03T09:19:54;5.10;;;2.33;;
65759;SDS011;52496;51.082;5.066;2023-04-03T09:22:33;5.18;;;2.25;;
65759;SDS011;52496;51.082;5.066;2023-04-03T09:25:15;8.07;;;2.50;;
65759;SDS011;52496;51.082;5.066;2023-04-03T09:27:51;4.82;;;2.75;;
65759;SDS011;52496;51.082;5.066;2023-04-03T09:30:24;6.28;;;3.03;;
65759;SDS011;52496;51.082;5.066;2023-04-03T09:32:56;8.10;;;2.63;;
65759;SDS011;52496;51.082;5.066;2023-04-03T09:43:55;11.00;;;4.72;;
65759;SDS011;52496;51.082;5.066;2023-04-03T09:46:30;7.70;;;3.20;;
65759;SDS011;52496;51.082;5.066;2023-04-03T09:49:03;6.78;;;2.63;;
65759;SDS011;52496;51.082;5.066;2023-04-03T09:51:35;7.72;;;3.10;;
65759;SDS011;52496;51.082;5.066;2023-04-03T09:54:23;7.00;;;2.72;;
65759;SDS011;52496;51.082;5.066;2023-04-03T09:56:56;7.18;;;3.22;;
65759;SDS011;52496;51.082;5.066;2023-04-03T09:59:31;5.40;;;2.30;;
65759;SDS011;52496;51.082;5.066;2023-04-03T10:02:04;5.43;;;2.50;;
65759;SDS011;52496;51.082;5.066;2023-04-03T10:04:49;6.40;;;2.47;;
65759;SDS011;52496;51.082;5.066;2023-04-03T10:07:27;6.15;;;2.60;;
65759;SDS011;52496;51.082;5.066;2023-04-03T10:10:18;7.45;;;2.50;;
65759;SDS011;52496;51.082;5.066;2023-04-03T10:13:03;6.57;;;2.47;;
65759;SDS011;52496;51.082;5.066;2023-04-03T10:15:41;3.58;;;2.00;;
65759;SDS011;52496;51.082;5.066;2023-04-03T10:18:20;5.65;;;2.05;;
65759;SDS011;52496;51.082;5.066;2023-04-03T10:20:59;5.70;;;2.40;;
65759;SDS011;52496;51.082;5.066;2023-04-03T10:23:42;4.25;;;2.17;;
65759;SDS011;52496;51.082;5.066;2023-04-03T10:26:29;6.90;;;2.70;;
65759;SDS011;52496;51.082;5.066;2023-04-03T10:32:06;4.55;;;1.90;;
65759;SDS011;52496;51.082;5.066;2023-04-03T10:34:43;6.30;;;2.70;;
65759;SDS011;52496;51.082;5.066;2023-04-03T10:37:29;5.72;;;2.33;;
65759;SDS011;52496;51.082;5.066;2023-04-03T10:40:22;4.90;;;2.17;;
65759;SDS011;52496;51.082;5.066;2023-04-03T10:43:08;3.75;;;1.67;;
65759;SDS011;52496;51.082;5.066;2023-04-03T10:51:41;3.65;;;1.90;;
65759;SDS011;52496;51.082;5.066;2023-04-03T10:54:24;3.67;;;2.05;;
65759;SDS011;52496;51.082;5.066;2023-04-03T10:57:05;2.95;;;1.85;;
65759;SDS011;52496;51.082;5.066;2023-04-03T10:59:41;3.92;;;1.75;;
65759;SDS011;52496;51.082;5.066;2023-04-03T11:02:25;3.17;;;1.70;;
65759;SDS011;52496;51.082;5.066;2023-04-03T11:05:04;3.42;;;1.83;;
65759;SDS011;52496;51.082;5.066;2023-04-03T11:07:40;3.47;;;1.77;;
65759;SDS011;52496;51.082;5.066;2023-04-03T11:10:21;4.88;;;2.05;;
65759;SDS011;52496;51.082;5.066;2023-04-03T11:15:49;4.30;;;2.30;;
65759;SDS011;52496;51.082;5.066;2023-04-03T11:18:27;3.38;;;2.20;;
65759;SDS011;52496;51.082;5.066;2023-04-03T11:21:17;4.18;;;2.10;;
65759;SDS011;52496;51.082;5.066;2023-04-03T11:23:51;6.97;;;2.17;;
65759;SDS011;52496;51.082;5.066;2023-04-03T11:26:27;4.93;;;2.17;;
65759;SDS011;52496;51.082;5.066;2023-04-03T11:29:03;3.92;;;2.05;;
65759;SDS011;52496;51.082;5.066;2023-04-03T11:31:48;4.28;;;1.83;;
65759;SDS011;52496;51.082;5.066;2023-04-03T11:34:37;4.28;;;2.35;;
65759;SDS011;52496;51.082;5.066;2023-04-03T11:42:52;5.03;;;2.05;;
65759;SDS011;52496;51.082;5.066;2023-04-03T11:47:58;6.97;;;2.33;;
65759;SDS011;52496;51.082;5.066;2023-04-03T11:58:19;3.42;;;1.85;;
65759;SDS011;52496;51.082;5.066;2023-04-03T12:01:03;5.23;;;2.30;;
65759;SDS011;52496;51.082;5.066;2023-04-03T12:11:31;5.32;;;1.95;;
65759;SDS011;52496;51.082;5.066;2023-04-03T12:14:04;7.07;;;2.20;;
65759;SDS011;52496;51.082;5.066;2023-04-03T12:29:53;5.90;;;2.30;;
65759;SDS011;52496;51.082;5.066;2023-04-03T12:35:30;5.47;;;2.35;;
65759;SDS011;52496;51.082;5.066;2023-04-03T12:38:14;4.75;;;1.75;;
65759;SDS011;52496;51.082;5.066;2023-04-03T12:44:26;3.95;;;1.83;;
65759;SDS011;52496;51.082;5.066;2023-04-03T12:47:36;6.55;;;2.53;;
65759;SDS011;52496;51.082;5.066;2023-04-03T12:53:04;5.30;;;2.10;;
65759;SDS011;52496;51.082;5.066;2023-04-03T12:55:36;8.00;;;1.95;;
65759;SDS011;52496;51.082;5.066;2023-04-03T12:58:13;3.13;;;1.85;;
65759;SDS011;52496;51.082;5.066;2023-04-03T13:00:46;4.22;;;2.20;;
65759;SDS011;52496;51.082;5.066;2023-04-03T13:03:29;4.88;;;2.20;;
65759;SDS011;52496;51.082;5.066;2023-04-03T13:06:01;6.00;;;2.67;;
65759;SDS011;52496;51.082;5.066;2023-04-03T13:08:33;6.28;;;3.17;;
65759;SDS011;52496;51.082;5.066;2023-04-03T13:11:09;4.47;;;1.90;;
65759;SDS011;52496;51.082;5.066;2023-04-03T13:13:53;3.70;;;2.08;;
65759;SDS011;52496;51.082;5.066;2023-04-03T13:16:37;3.35;;;1.80;;
65759;SDS011;52496;51.082;5.066;2023-04-03T13:19:16;5.18;;;2.08;;
65759;SDS011;52496;51.082;5.066;2023-04-03T13:21:47;3.83;;;1.98;;
65759;SDS011;52496;51.082;5.066;2023-04-03T13:24:19;4.03;;;1.65;;
65759;SDS011;52496;51.082;5.066;2023-04-03T13:26:51;2.28;;;1.58;;
65759;SDS011;52496;51.082;5.066;2023-04-03T13:29:27;3.15;;;1.70;;
65759;SDS011;52496;51.082;5.066;2023-04-03T13:32:07;4.25;;;1.90;;
65759;SDS011;52496;51.082;5.066;2023-04-03T13:34:48;5.43;;;2.10;;
65759;SDS011;52496;51.082;5.066;2023-04-03T13:37:23;3.30;;;1.90;;
65759;SDS011;52496;51.082;5.066;2023-04-03T13:42:32;6.05;;;2.08;;
65759;SDS011;52496;51.082;5.066;2023-04-03T13:45:11;4.85;;;1.85;;
65759;SDS011;52496;51.082;5.066;2023-04-03T13:47:48;4.13;;;1.80;;
65759;SDS011;52496;51.082;5.066;2023-04-03T13:50:21;5.45;;;1.80;;
65759;SDS011;52496;51.082;5.066;2023-04-03T13:53:00;7.88;;;2.25;;
65759;SDS011;52496;51.082;5.066;2023-04-03T13:55:34;3.88;;;1.80;;
65759;SDS011;52496;51.082;5.066;2023-04-03T14:03:29;3.92;;;1.90;;
65759;SDS011;52496;51.082;5.066;2023-04-03T14:06:04;3.53;;;1.87;;
65759;SDS011;52496;51.082;5.066;2023-04-03T14:08:36;5.15;;;2.00;;
65759;SDS011;52496;51.082;5.066;2023-04-03T14:14:18;6.55;;;2.00;;
65759;SDS011;52496;51.082;5.066;2023-04-03T14:16:52;4.10;;;1.92;;
65759;SDS011;52496;51.082;5.066;2023-04-03T14:19:27;4.72;;;2.00;;
65759;SDS011;52496;51.082;5.066;2023-04-03T14:24:52;5.32;;;2.13;;
65759;SDS011;52496;51.082;5.066;2023-04-03T14:27:25;7.43;;;2.22;;
65759;SDS011;52496;51.082;5.066;2023-04-03T14:29:56;4.00;;;2.28;;
65759;SDS011;52496;51.082;5.066;2023-04-03T14:32:28;3.17;;;1.80;;
65759;SDS011;52496;51.082;5.066;2023-04-03T14:34:59;4.68;;;2.08;;
65759;SDS011;52496;51.082;5.066;2023-04-03T14:37:30;3.38;;;1.80;;
65759;SDS011;52496;51.082;5.066;2023-04-03T14:40:07;7.45;;;2.20;;
65759;SDS011;52496;51.082;5.066;2023-04-03T14:42:38;5.25;;;2.00;;
65759;SDS011;52496;51.082;5.066;2023-04-03T14:45:10;4.32;;;2.00;;
65759;SDS011;52496;51.082;5.066;2023-04-03T14:47:43;8.52;;;2.28;;
65759;SDS011;52496;51.082;5.066;2023-04-03T14:50:19;4.05;;;2.05;;
65759;SDS011;52496;51.082;5.066;2023-04-03T14:52:53;3.88;;;1.83;;
65759;SDS011;52496;51.082;5.066;2023-04-03T14:55:27;5.38;;;2.30;;
65759;SDS011;52496;51.082;5.066;2023-04-03T14:57:58;3.40;;;1.90;;
65759;SDS011;52496;51.082;5.066;2023-04-03T15:00:28;4.53;;;2.10;;
65759;SDS011;52496;51.082;5.066;2023-04-03T15:02:59;4.55;;;1.92;;
65759;SDS011;52496;51.082;5.066;2023-04-03T15:05:30;3.33;;;2.00;;
65759;SDS011;52496;51.082;5.066;2023-04-03T15:08:01;4.55;;;2.50;;
65759;SDS011;52496;51.082;5.066;2023-04-03T15:10:31;5.47;;;2.28;;
65759;SDS011;52496;51.082;5.066;2023-04-03T15:13:02;5.55;;;1.95;;
65759;SDS011;52496;51.082;5.066;2023-04-03T15:15:34;3.17;;;1.80;;
65759;SDS011;52496;51.082;5.066;2023-04-03T15:18:06;4.88;;;2.08;;
65759;SDS011;52496;51.082;5.066;2023-04-03T15:20:40;6.07;;;2.13;;
65759;SDS011;52496;51.082;5.066;2023-04-03T15:23:12;3.75;;;2.03;;
65759;SDS011;52496;51.082;5.066;2023-04-03T15:25:46;7.57;;;2.35;;
65759;SDS011;52496;51.082;5.066;2023-04-03T15:28:19;5.45;;;2.00;;
65759;SDS011;52496;51.082;5.066;2023-04-03T15:30:56;4.72;;;2.45;;
65759;SDS011;52496;51.082;5.066;2023-04-03T15:33:27;5.70;;;2.22;;
65759;SDS011;52496;51.082;5.066;2023-04-03T15:35:57;7.05;;;2.33;;
65759;SDS011;52496;51.082;5.066;2023-04-03T15:38:28;5.78;;;2.38;;
65759;SDS011;52496;51.082;5.066;2023-04-03T15:40:59;4.57;;;2.40;;
65759;SDS011;52496;51.082;5.066;2023-04-03T15:43:29;4.32;;;2.40;;
65759;SDS011;52496;51.082;5.066;2023-04-03T15:46:01;4.80;;;2.00;;
65759;SDS011;52496;51.082;5.066;2023-04-03T15:48:32;5.95;;;2.00;;
65759;SDS011;52496;51.082;5.066;2023-04-03T15:51:03;5.38;;;2.08;;
65759;SDS011;52496;51.082;5.066;2023-04-03T15:53:35;3.42;;;1.80;;
65759;SDS011;52496;51.082;5.066;2023-04-03T15:56:05;4.65;;;2.10;;
65759;SDS011;52496;51.082;5.066;2023-04-03T15:58:38;4.20;;;2.17;;
65759;SDS011;52496;51.082;5.066;2023-04-03T16:01:09;5.43;;;2.80;;
65759;SDS011;52496;51.082;5.066;2023-04-03T16:03:42;4.50;;;2.42;;
65759;SDS011;52496;51.082;5.066;2023-04-03T16:06:17;5.60;;;2.50;;
65759;SDS011;52496;51.082;5.066;2023-04-03T16:08:59;6.63;;;2.60;;
65759;SDS011;52496;51.082;5.066;2023-04-03T16:11:30;6.32;;;3.72;;
65759;SDS011;52496;51.082;5.066;2023-04-03T16:14:01;6.18;;;2.20;;
65759;SDS011;52496;51.082;5.066;2023-04-03T16:16:31;6.93;;;2.70;;
65759;SDS011;52496;51.082;5.066;2023-04-03T16:19:03;9.82;;;2.80;;
65759;SDS011;52496;51.082;5.066;2023-04-03T16:21:34;6.00;;;2.20;;
65759;SDS011;52496;51.082;5.066;2023-04-03T16:24:05;5.72;;;2.22;;
65759;SDS011;52496;51.082;5.066;2023-04-03T16:26:35;4.80;;;2.13;;
65759;SDS011;52496;51.082;5.066;2023-04-03T16:29:06;4.43;;;2.10;;
65759;SDS011;52496;51.082;5.066;2023-04-03T16:31:36;5.40;;;2.30;;
65759;SDS011;52496;51.082;5.066;2023-04-03T16:34:07;5.32;;;2.00;;
65759;SDS011;52496;51.082;5.066;2023-04-03T16:36:37;8.73;;;2.50;;
65759;SDS011;52496;51.082;5.066;2023-04-03T16:39:10;7.03;;;2.53;;
65759;SDS011;52496;51.082;5.066;2023-04-03T16:41:41;5.95;;;2.25;;
65759;SDS011;52496;51.082;5.066;2023-04-03T16:44:12;4.43;;;2.10;;
65759;SDS011;52496;51.082;5.066;2023-04-03T16:46:44;6.50;;;2.28;;
65759;SDS011;52496;51.082;5.066;2023-04-03T16:49:15;7.07;;;2.42;;
65759;SDS011;52496;51.082;5.066;2023-04-03T16:51:47;7.53;;;2.35;;
65759;SDS011;52496;51.082;5.066;2023-04-03T16:54:19;4.93;;;2.28;;
65759;SDS011;52496;51.082;5.066;2023-04-03T16:56:49;4.72;;;1.98;;
65759;SDS011;52496;51.082;5.066;2023-04-03T16:59:20;6.20;;;2.25;;